Time;durP1;ratioP1;P1;durP2;ratioP2;P2;SDS_P1;SDS_P2;PMS_P1;PMS_P2;Temp;Humidity;BMP_temperature;BMP_pressure;BME280_temperature;BME280_humidity;BME280_pressure;Samples;Min_cycle;Max_cycle;Signal;HPM_P1;HPM_P2
2022/11/18 00:02:06;;;;;;;55.65;27.02;;;6.40;99.90;;;;;;5045280;28;20057;-60
2022/11/18 00:04:31;;;;;;;54.95;25.48;;;6.40;99.90;;;;;;5044219;28;20133;-60
2022/11/18 00:06:57;;;;;;;53.83;25.98;;;6.40;99.90;;;;;;5049079;28;20090;-60
2022/11/18 00:09:23;;;;;;;50.55;26.10;;;6.30;99.90;;;;;;5048216;28;20045;-60
2022/11/18 00:14:32;;;;;;;54.60;25.17;;;6.30;99.90;;;;;;5048737;28;20056;-59
2022/11/18 00:17:03;;;;;;;66.57;28.02;;;6.40;99.90;;;;;;5048596;28;20041;-59
2022/11/18 00:19:32;;;;;;;62.10;26.92;;;6.40;99.90;;;;;;5047787;28;20151;-59
2022/11/18 00:21:58;;;;;;;102.20;31.35;;;6.40;99.90;;;;;;5049176;28;20048;-59
2022/11/18 00:24:25;;;;;;;62.53;26.83;;;6.50;99.90;;;;;;5049244;28;20449;-59
2022/11/18 00:26:51;;;;;;;67.97;27.90;;;7.20;99.90;;;;;;5047809;28;20045;-59
2022/11/18 00:29:17;;;;;;;63.63;26.58;;;6.40;99.90;;;;;;5048957;28;20123;-60
2022/11/18 00:31:43;;;;;;;64.72;28.52;;;6.40;99.90;;;;;;5048581;28;20064;-60
2022/11/18 00:34:12;;;;;;;68.63;27.20;;;6.30;99.90;;;;;;5047114;28;20445;-59
2022/11/18 00:36:39;;;;;;;62.45;27.17;;;6.40;99.90;;;;;;5064568;28;20721;-59
2022/11/18 00:39:04;;;;;;;62.53;26.90;;;6.50;99.90;;;;;;5048721;28;20066;-60
2022/11/18 00:44:15;;;;;;;66.80;28.83;;;6.40;99.90;;;;;;5047423;28;20065;-59
2022/11/18 00:46:40;;;;;;;66.70;27.60;;;6.40;99.90;;;;;;5049031;28;20091;-59
2022/11/18 00:49:07;;;;;;;69.95;28.65;;;6.30;99.90;;;;;;5047106;28;20046;-59
2022/11/18 00:51:32;;;;;;;62.92;28.02;;;6.70;99.90;;;;;;5048507;28;20497;-60
2022/11/18 00:53:58;;;;;;;60.90;28.27;;;6.50;99.90;;;;;;5048170;28;20045;-60
2022/11/18 00:56:24;;;;;;;62.95;27.38;;;6.30;99.90;;;;;;5029744;28;20107;-59
2022/11/18 00:58:49;;;;;;;64.55;27.52;;;6.30;99.90;;;;;;5047030;28;20057;-59
2022/11/18 01:01:15;;;;;;;60.88;26.55;;;6.40;99.90;;;;;;5046907;28;20048;-60
2022/11/18 01:03:41;;;;;;;61.28;27.85;;;6.30;99.90;;;;;;5048423;28;20080;-60
2022/11/18 01:06:07;;;;;;;59.97;27.70;;;6.40;99.90;;;;;;5047340;28;20055;-61
2022/11/18 01:08:32;;;;;;;60.42;26.98;;;6.30;99.90;;;;;;5048818;28;20033;-59
2022/11/18 01:13:42;;;;;;;65.97;30.25;;;6.40;99.90;;;;;;5048578;28;20051;-59
2022/11/18 01:16:08;;;;;;;61.38;30.23;;;6.50;99.90;;;;;;5047692;28;20045;-61
2022/11/18 01:18:33;;;;;;;72.72;29.58;;;6.30;99.90;;;;;;5046293;28;20036;-60
2022/11/18 01:21:01;;;;;;;66.25;29.17;;;6.40;99.90;;;;;;5046378;28;20045;-60
2022/11/18 01:23:26;;;;;;;70.60;29.42;;;6.50;99.90;;;;;;5047730;28;20053;-59
2022/11/18 01:25:52;;;;;;;69.35;31.20;;;6.40;99.90;;;;;;5046610;28;20052;-60
2022/11/18 01:28:18;;;;;;;64.50;30.10;;;7.40;99.90;;;;;;5046066;28;20057;-60
2022/11/18 01:30:44;;;;;;;70.72;31.85;;;6.40;99.90;;;;;;5063051;28;20132;-60
2022/11/18 01:33:10;;;;;;;74.38;31.95;;;6.40;99.90;;;;;;5046162;28;20049;-60
2022/11/18 01:35:39;;;;;;;72.70;30.85;;;7.30;99.90;;;;;;5029571;28;20101;-59
2022/11/18 01:38:05;;;;;;;90.50;33.28;;;6.90;99.90;;;;;;5047561;28;20037;-59
2022/11/18 01:40:31;;;;;;;73.10;30.70;;;6.20;99.90;;;;;;5047827;28;20078;-59
2022/11/18 01:42:57;;;;;;;73.60;32.08;;;7.30;99.90;;;;;;5047664;28;20053;-59
2022/11/18 01:45:38;;;;;;;74.05;31.65;;;6.40;99.90;;;;;;5046294;28;20048;-59
2022/11/18 01:48:08;;;;;;;79.95;30.65;;;6.30;99.90;;;;;;5047784;28;20524;-59
2022/11/18 01:50:38;;;;;;;67.35;29.42;;;5.90;99.90;;;;;;5046691;28;20090;-59
2022/11/18 01:53:16;;;;;;;75.82;31.48;;;6.30;99.90;;;;;;5047389;28;20498;-60
2022/11/18 01:55:45;;;;;;;78.97;31.25;;;6.20;99.90;;;;;;5046318;28;20098;-59
2022/11/18 01:58:17;;;;;;;75.78;30.25;;;6.10;99.90;;;;;;5047360;28;20049;-59
2022/11/18 02:00:43;;;;;;;74.45;30.50;;;6.30;99.90;;;;;;5047117;28;20076;-59
2022/11/18 02:03:08;;;;;;;77.75;30.90;;;6.30;99.90;;;;;;5045846;28;20471;-60
2022/11/18 02:05:35;;;;;;;74.47;30.48;;;6.50;99.90;;;;;;5045843;28;20051;-60
2022/11/18 02:08:01;;;;;;;72.00;30.00;;;6.80;99.90;;;;;;5062309;28;20107;-60
2022/11/18 02:10:27;;;;;;;70.20;31.30;;;6.40;99.90;;;;;;5045640;28;20041;-59
2022/11/18 02:12:54;;;;;;;80.80;30.17;;;6.30;99.90;;;;;;5045661;28;20052;-59
2022/11/18 02:15:40;;;;;;;74.40;30.13;;;6.30;99.90;;;;;;5045922;28;20041;-59
2022/11/18 02:18:27;;;;;;;70.65;28.73;;;6.20;99.90;;;;;;5062869;28;20282;-59
2022/11/18 02:21:12;;;;;;;67.57;28.40;;;6.30;99.90;;;;;;5047457;28;20043;-59
2022/11/18 02:23:56;;;;;;;61.97;28.48;;;6.20;99.90;;;;;;5045747;28;20162;-59
2022/11/18 02:27:00;;;;;;;66.22;26.63;;;6.20;99.90;;;;;;5047326;28;20044;-59
2022/11/18 02:29:31;;;;;;;68.32;27.35;;;6.20;99.90;;;;;;5044586;28;20114;-59
2022/11/18 02:31:59;;;;;;;59.97;28.27;;;6.20;99.90;;;;;;5062321;28;20098;-59
2022/11/18 02:34:35;;;;;;;61.92;25.92;;;6.20;99.90;;;;;;5045320;28;20045;-59
2022/11/18 02:37:33;;;;;;;62.90;26.13;;;6.20;99.90;;;;;;5046667;28;20545;-61
2022/11/18 02:40:12;;;;;;;62.72;26.40;;;6.20;99.90;;;;;;5046028;28;20053;-58
2022/11/18 02:42:40;;;;;;;64.05;27.23;;;6.10;99.90;;;;;;5046456;28;20122;-60
2022/11/18 02:45:11;;;;;;;69.55;27.42;;;6.30;99.90;;;;;;5045644;28;20292;-60
2022/11/18 02:47:39;;;;;;;68.63;27.75;;;6.30;99.90;;;;;;5046607;28;20059;-59
2022/11/18 02:50:08;;;;;;;67.88;26.98;;;6.10;99.90;;;;;;5061702;28;20123;-59
2022/11/18 02:52:36;;;;;;;60.65;27.02;;;6.20;99.90;;;;;;5046075;28;20053;-59
2022/11/18 02:55:04;;;;;;;65.18;26.98;;;6.20;99.90;;;;;;5061267;28;20045;-59
2022/11/18 02:57:31;;;;;;;61.83;26.20;;;6.20;99.90;;;;;;5045933;28;20057;-59
2022/11/18 02:59:57;;;;;;;58.58;26.00;;;6.20;99.90;;;;;;5046444;28;20048;-59
2022/11/18 03:02:23;;;;;;;61.88;25.52;;;6.10;99.90;;;;;;5045093;28;20603;-60
2022/11/18 03:04:52;;;;;;;62.28;26.17;;;6.20;99.90;;;;;;5045190;28;20408;-60
2022/11/18 03:07:28;;;;;;;60.58;24.60;;;6.20;99.90;;;;;;5047191;28;20044;-60
2022/11/18 03:09:55;;;;;;;63.65;25.65;;;6.10;99.90;;;;;;5046705;28;20041;-58
2022/11/18 03:13:02;;;;;;;57.90;25.58;;;6.20;99.90;;;;;;5044507;28;20084;-59
2022/11/18 03:15:59;;;;;;;56.10;25.08;;;6.10;99.90;;;;;;5060633;28;20061;-59
2022/11/18 03:18:37;;;;;;;54.65;25.13;;;6.20;99.90;;;;;;5045852;28;20130;-59
2022/11/18 03:21:16;;;;;;;57.78;24.08;;;6.10;99.90;;;;;;5044762;28;20052;-59
2022/11/18 03:23:55;;;;;;;56.33;25.20;;;6.10;99.90;;;;;;5061355;28;20076;-59
2022/11/18 03:26:30;;;;;;;56.03;23.48;;;6.00;99.90;;;;;;5061096;28;20123;-59
2022/11/18 03:29:03;;;;;;;51.10;23.45;;;6.20;99.90;;;;;;5046226;28;20379;-59
2022/11/18 03:31:45;;;;;;;53.65;23.35;;;6.80;99.90;;;;;;5060469;28;20084;-59
2022/11/18 03:34:29;;;;;;;52.60;23.60;;;6.00;99.90;;;;;;5060925;28;20115;-60
2022/11/18 03:36:59;;;;;;;61.35;23.80;;;6.10;99.90;;;;;;5045596;28;20045;-59
2022/11/18 03:39:27;;;;;;;48.75;22.52;;;5.90;99.90;;;;;;5045385;28;20037;-59
2022/11/18 03:42:05;;;;;;;48.60;23.55;;;6.00;99.90;;;;;;5049451;28;20744;-59
2022/11/18 03:44:36;;;;;;;52.15;22.80;;;6.00;99.90;;;;;;5049700;28;20577;-59
2022/11/18 03:47:21;;;;;;;53.58;22.42;;;6.10;99.90;;;;;;5048671;28;20118;-60
2022/11/18 03:49:57;;;;;;;60.20;24.83;;;6.10;99.90;;;;;;5048148;28;20128;-59
2022/11/18 03:52:27;;;;;;;47.35;22.90;;;6.00;99.90;;;;;;5064765;28;20406;-59
2022/11/18 03:54:57;;;;;;;53.30;23.15;;;6.00;99.90;;;;;;5049747;28;20037;-59
2022/11/18 03:57:33;;;;;;;54.83;22.63;;;5.90;99.90;;;;;;5064839;28;20053;-59
2022/11/18 04:00:06;;;;;;;52.28;22.55;;;5.80;99.90;;;;;;5065187;28;20053;-59
2022/11/18 04:02:32;;;;;;;53.55;22.92;;;6.00;99.90;;;;;;5064940;28;20095;-59
2022/11/18 04:05:01;;;;;;;50.67;22.80;;;5.90;99.90;;;;;;5050054;28;20080;-60
2022/11/18 04:07:43;;;;;;;42.72;21.60;;;5.90;99.90;;;;;;5064797;28;20044;-60
2022/11/18 04:10:21;;;;;;;47.70;22.55;;;5.90;99.90;;;;;;5048081;28;20045;-60
2022/11/18 04:13:05;;;;;;;47.80;22.23;;;5.80;99.90;;;;;;5049691;28;20053;-59
2022/11/18 04:15:31;;;;;;;53.70;22.73;;;6.10;99.90;;;;;;5065153;28;20358;-59
2022/11/18 04:17:57;;;;;;;46.00;22.15;;;6.90;99.90;;;;;;5047929;28;20506;-60
2022/11/18 04:20:23;;;;;;;52.08;21.73;;;5.90;99.90;;;;;;5048044;28;20053;-59
2022/11/18 04:22:49;;;;;;;56.13;23.30;;;5.80;99.90;;;;;;5064537;28;20178;-59
2022/11/18 04:25:15;;;;;;;54.22;22.55;;;6.50;99.90;;;;;;5049140;28;20480;-59
2022/11/18 04:27:41;;;;;;;48.08;21.90;;;5.90;99.90;;;;;;5047551;28;20605;-59
2022/11/18 04:30:07;;;;;;;54.83;22.25;;;6.90;99.90;;;;;;5047644;28;20376;-59
2022/11/18 04:32:34;;;;;;;52.83;22.88;;;5.90;99.90;;;;;;5046810;28;20118;-59
2022/11/18 04:34:59;;;;;;;88.35;26.15;;;5.90;99.90;;;;;;5046558;28;20048;-60
2022/11/18 04:37:25;;;;;;;51.90;21.30;;;6.90;99.90;;;;;;5046420;28;20483;-59
2022/11/18 04:39:51;;;;;;;62.03;23.20;;;5.90;99.90;;;;;;5048432;28;20045;-60
2022/11/18 04:42:17;;;;;;;55.15;21.70;;;5.90;99.90;;;;;;5046543;28;20060;-59
2022/11/18 04:44:42;;;;;;;67.15;25.40;;;5.80;99.90;;;;;;5047663;28;20041;-59
2022/11/18 04:47:08;;;;;;;64.15;22.92;;;5.90;99.90;;;;;;5048474;28;20036;-59
2022/11/18 04:49:34;;;;;;;56.60;21.55;;;5.90;99.90;;;;;;5046734;28;20068;-59
2022/11/18 04:52:01;;;;;;;63.10;23.65;;;6.20;99.90;;;;;;5045783;28;20053;-59
2022/11/18 04:54:27;;;;;;;66.32;23.55;;;5.80;99.90;;;;;;5047258;28;20520;-59
2022/11/18 04:56:53;;;;;;;60.25;23.75;;;6.20;99.90;;;;;;5047972;28;20086;-59
2022/11/18 04:59:22;;;;;;;62.67;23.40;;;6.00;99.90;;;;;;5048189;28;20061;-59
2022/11/18 05:01:49;;;;;;;63.03;23.13;;;6.00;99.90;;;;;;5046832;28;20045;-59
2022/11/18 05:04:17;;;;;;;59.20;23.40;;;5.90;99.90;;;;;;5048381;28;20565;-59
2022/11/18 05:06:43;;;;;;;65.97;23.80;;;5.80;99.90;;;;;;5047981;28;20076;-60
2022/11/18 05:09:09;;;;;;;58.58;22.63;;;5.90;99.90;;;;;;5047911;28;20475;-59
2022/11/18 05:14:19;;;;;;;62.13;22.40;;;5.90;99.90;;;;;;5046677;28;20102;-59
2022/11/18 05:16:45;;;;;;;61.17;22.38;;;7.80;99.90;;;;;;5046272;28;20052;-60
2022/11/18 05:19:11;;;;;;;59.55;24.15;;;5.70;99.90;;;;;;5046689;28;20057;-59
2022/11/18 05:21:37;;;;;;;66.95;25.70;;;7.60;99.90;;;;;;5047686;28;20049;-60
2022/11/18 05:24:03;;;;;;;58.47;22.15;;;5.60;99.90;;;;;;5046570;28;20045;-59
2022/11/18 05:26:30;;;;;;;63.10;23.35;;;5.70;99.90;;;;;;5046417;28;20052;-59
2022/11/18 05:28:55;;;;;;;73.53;24.15;;;5.80;99.90;;;;;;5045940;28;20044;-58
2022/11/18 05:31:21;;;;;;;61.85;23.80;;;5.80;99.90;;;;;;5047296;28;20045;-59
2022/11/18 05:33:47;;;;;;;64.45;23.58;;;5.60;99.90;;;;;;5047451;28;20055;-59
2022/11/18 05:36:15;;;;;;;62.00;22.77;;;5.70;99.90;;;;;;5047734;28;20076;-59
2022/11/18 05:38:41;;;;;;;69.03;25.00;;;5.90;99.90;;;;;;5047392;28;20047;-58
2022/11/18 05:41:08;;;;;;;71.53;23.60;;;5.70;99.90;;;;;;5046776;28;20041;-59
2022/11/18 05:43:35;;;;;;;58.13;23.42;;;6.70;99.90;;;;;;5048324;28;20045;-59
2022/11/18 05:46:02;;;;;;;68.22;24.05;;;5.80;99.90;;;;;;5046917;28;20102;-59
2022/11/18 05:48:28;;;;;;;68.57;23.17;;;5.70;99.90;;;;;;5048244;28;20410;-59
2022/11/18 05:50:54;;;;;;;72.32;24.45;;;5.60;99.90;;;;;;5047983;28;20395;-58
2022/11/18 05:53:23;;;;;;;63.83;23.23;;;5.80;99.90;;;;;;5046165;28;20130;-59
2022/11/18 05:56:20;;;;;;;61.10;24.83;;;5.70;99.90;;;;;;5045852;28;20045;-60
2022/11/18 05:58:46;;;;;;;59.58;24.38;;;5.70;99.90;;;;;;5046810;28;20262;-60
2022/11/18 06:01:19;;;;;;;57.33;22.25;;;5.70;99.90;;;;;;5047503;28;20053;-60
2022/11/18 06:03:45;;;;;;;64.20;23.75;;;5.60;99.90;;;;;;5045578;28;20076;-60
2022/11/18 06:06:14;;;;;;;65.60;23.65;;;5.50;99.90;;;;;;5045851;28;20087;-59
2022/11/18 06:09:04;;;;;;;74.90;23.63;;;5.60;99.90;;;;;;5045992;28;20044;-59
2022/11/18 06:11:36;;;;;;;58.53;23.40;;;5.50;99.90;;;;;;5047707;28;20128;-58
2022/11/18 06:14:08;;;;;;;62.83;23.57;;;5.70;99.90;;;;;;5045563;28;20151;-59
2022/11/18 06:16:37;;;;;;;65.13;22.35;;;5.50;99.90;;;;;;5047454;28;20441;-59
2022/11/18 06:19:03;;;;;;;61.25;23.02;;;5.60;99.90;;;;;;5046891;28;20049;-59
2022/11/18 06:21:29;;;;;;;66.25;23.50;;;5.70;99.90;;;;;;5046612;28;20060;-58
2022/11/18 06:23:55;;;;;;;71.82;24.67;;;5.80;99.90;;;;;;5046456;28;20482;-59
2022/11/18 06:26:21;;;;;;;63.85;24.08;;;5.60;99.90;;;;;;5045134;28;20068;-59
2022/11/18 06:28:48;;;;;;;64.88;23.45;;;5.60;99.90;;;;;;5046489;28;20169;-59
2022/11/18 06:31:15;;;;;;;63.50;21.42;;;5.60;99.90;;;;;;5046553;28;20063;-60
2022/11/18 06:33:41;;;;;;;66.53;22.60;;;5.70;99.90;;;;;;5045105;28;20040;-59
2022/11/18 06:36:08;;;;;;;59.75;22.85;;;5.50;99.90;;;;;;5046644;28;20052;-59
2022/11/18 06:38:33;;;;;;;61.40;21.60;;;5.60;99.90;;;;;;5046923;28;20064;-58
2022/11/18 06:41:00;;;;;;;67.13;24.02;;;5.60;99.90;;;;;;5061537;28;20094;-59
2022/11/18 06:43:38;;;;;;;61.97;24.15;;;5.60;99.90;;;;;;5045249;28;20552;-59
2022/11/18 06:48:50;;;;;;;58.65;22.73;;;5.60;99.90;;;;;;5044843;28;20064;-58
2022/11/18 06:51:16;;;;;;;58.55;22.77;;;5.40;99.90;;;;;;5061929;28;20052;-58
2022/11/18 06:53:42;;;;;;;63.05;22.52;;;5.50;99.90;;;;;;5046660;28;20494;-59
2022/11/18 06:56:11;;;;;;;58.25;22.50;;;5.80;99.90;;;;;;5046503;28;20047;-59
2022/11/18 06:58:37;;;;;;;66.88;23.00;;;5.40;99.90;;;;;;5046841;28;20489;-60
2022/11/18 07:01:17;;;;;;;57.17;21.95;;;5.50;99.90;;;;;;5045886;28;20053;-59
2022/11/18 07:03:45;;;;;;;58.10;22.52;;;5.50;99.90;;;;;;5045152;28;20054;-59
2022/11/18 07:06:12;;;;;;;59.42;22.90;;;5.50;99.90;;;;;;5044207;28;20171;-59
2022/11/18 07:08:40;;;;;;;67.65;23.27;;;5.60;99.90;;;;;;5045947;28;20126;-58
2022/11/18 07:11:11;;;;;;;52.40;18.52;;;5.50;99.90;;;;;;5045623;28;20041;-59
2022/11/18 07:13:37;;;;;;;53.95;21.05;;;5.40;99.90;;;;;;5045766;28;20118;-58
2022/11/18 07:16:09;;;;;;;48.90;19.70;;;5.40;99.90;;;;;;5043521;28;20980;-58
2022/11/18 07:18:36;;;;;;;54.38;19.10;;;5.60;99.90;;;;;;5061092;28;20486;-59
2022/11/18 07:21:15;;;;;;;58.75;20.40;;;5.40;99.90;;;;;;5044232;28;20060;-59
2022/11/18 07:23:41;;;;;;;54.40;21.38;;;5.50;99.90;;;;;;5044359;28;20095;-58
2022/11/18 07:26:07;;;;;;;53.05;20.35;;;5.40;99.90;;;;;;5045491;28;20414;-60
2022/11/18 07:28:33;;;;;;;48.80;19.52;;;5.30;99.90;;;;;;5044155;28;20505;-58
2022/11/18 07:31:01;;;;;;;50.78;20.02;;;5.30;99.90;;;;;;5044373;28;20048;-59
2022/11/18 07:33:27;;;;;;;50.53;19.42;;;5.40;99.90;;;;;;5046337;28;20064;-59
2022/11/18 07:35:53;;;;;;;45.58;18.77;;;5.30;99.90;;;;;;5044708;28;20053;-59
2022/11/18 07:38:18;;;;;;;44.70;18.35;;;5.20;99.90;;;;;;5043966;28;20095;-59
2022/11/18 07:40:44;;;;;;;48.30;18.15;;;5.20;99.90;;;;;;5045765;28;20036;-59
2022/11/18 07:43:09;;;;;;;46.55;17.25;;;5.30;99.90;;;;;;5044046;28;20048;-59
2022/11/18 07:45:35;;;;;;;51.80;18.90;;;5.30;99.90;;;;;;5044388;28;20043;-58
2022/11/18 07:48:01;;;;;;;49.03;19.55;;;5.30;99.90;;;;;;5045974;28;20136;-59
2022/11/18 07:50:26;;;;;;;42.40;17.50;;;5.50;99.90;;;;;;5044518;28;20079;-58
2022/11/18 07:52:55;;;;;;;40.88;17.90;;;5.30;99.90;;;;;;5045561;28;20080;-58
2022/11/18 07:55:21;;;;;;;42.63;16.60;;;5.30;99.90;;;;;;5043726;28;20112;-58
2022/11/18 07:57:46;;;;;;;43.80;17.55;;;5.20;99.90;;;;;;5060932;28;20128;-58
2022/11/18 08:00:13;;;;;;;40.00;14.55;;;6.00;99.90;;;;;;5027168;28;20091;-58
2022/11/18 08:02:38;;;;;;;34.63;13.75;;;5.20;99.90;;;;;;5043920;28;20502;-59
2022/11/18 08:05:04;;;;;;;40.53;15.77;;;5.20;99.90;;;;;;5045596;28;20081;-60
2022/11/18 08:07:30;;;;;;;35.25;13.82;;;5.20;99.90;;;;;;5045423;28;20055;-59
2022/11/18 08:09:56;;;;;;;34.53;14.93;;;5.30;99.90;;;;;;5045296;28;20041;-59
2022/11/18 08:12:21;;;;;;;33.65;14.98;;;5.30;99.90;;;;;;5043956;28;20078;-59
2022/11/18 08:14:47;;;;;;;30.45;13.77;;;5.20;99.90;;;;;;5045731;28;20068;-58
2022/11/18 08:17:12;;;;;;;35.67;12.88;;;5.20;99.90;;;;;;5044951;28;20049;-59
2022/11/18 08:19:38;;;;;;;37.60;14.15;;;5.20;99.90;;;;;;5044011;28;20391;-58
2022/11/18 08:22:04;;;;;;;37.67;13.82;;;5.30;99.90;;;;;;5044862;28;20482;-59
2022/11/18 08:24:29;;;;;;;34.45;13.80;;;5.20;99.90;;;;;;5043921;28;20049;-58
2022/11/18 08:26:55;;;;;;;30.77;14.77;;;5.20;99.90;;;;;;5046780;28;20052;-58
2022/11/18 08:29:21;;;;;;;32.47;12.57;;;5.50;99.90;;;;;;5049027;28;20049;-59
2022/11/18 08:31:46;;;;;;;30.60;13.20;;;5.30;99.90;;;;;;5047565;28;20106;-59
2022/11/18 08:34:12;;;;;;;40.38;14.50;;;5.30;99.90;;;;;;5049073;28;20041;-59
2022/11/18 08:36:39;;;;;;;39.90;14.57;;;5.30;99.90;;;;;;5047859;28;20044;-58
2022/11/18 08:39:06;;;;;;;38.30;15.13;;;5.30;99.90;;;;;;5049288;28;20073;-58
2022/11/18 08:41:36;;;;;;;40.72;15.45;;;5.30;99.90;;;;;;5049156;28;20118;-59
2022/11/18 08:44:03;;;;;;;34.58;14.60;;;5.30;99.90;;;;;;5047411;28;20418;-58
2022/11/18 08:46:29;;;;;;;36.50;14.55;;;5.30;99.90;;;;;;5048700;28;20067;-58
2022/11/18 08:48:55;;;;;;;36.38;14.93;;;5.40;99.90;;;;;;5047280;28;20547;-59
2022/11/18 08:51:21;;;;;;;34.22;14.05;;;5.30;99.90;;;;;;5046584;28;20049;-59
2022/11/18 08:53:47;;;;;;;38.70;14.73;;;5.30;99.90;;;;;;5046850;28;20052;-58
2022/11/18 08:56:18;;;;;;;41.03;14.05;;;5.30;99.90;;;;;;5046762;28;20045;-58
2022/11/18 08:58:44;;;;;;;34.03;15.20;;;5.30;99.90;;;;;;5046880;28;20049;-58
2022/11/18 09:01:10;;;;;;;38.67;15.30;;;5.30;99.90;;;;;;5047786;28;20068;-58
2022/11/18 09:03:36;;;;;;;39.45;16.13;;;5.20;99.90;;;;;;5046899;28;20166;-60
2022/11/18 09:06:05;;;;;;;36.95;16.55;;;5.30;99.90;;;;;;5024869;28;20045;-61
2022/11/18 09:08:31;;;;;;;38.63;16.77;;;5.30;99.90;;;;;;5045030;28;20045;-59
2022/11/18 09:10:57;;;;;;;43.20;18.35;;;5.30;99.90;;;;;;5043677;28;20048;-59
2022/11/18 09:13:22;;;;;;;41.65;17.23;;;5.30;99.90;;;;;;5043403;28;20129;-59
2022/11/18 09:15:49;;;;;;;41.60;18.88;;;5.30;99.90;;;;;;5043924;28;20048;-59
2022/11/18 09:18:14;;;;;;;42.95;16.88;;;5.10;99.90;;;;;;5060066;28;20045;-59
2022/11/18 09:20:40;;;;;;;41.03;16.85;;;5.20;99.90;;;;;;5025470;28;20049;-57
2022/11/18 09:23:05;;;;;;;40.92;17.80;;;5.40;99.90;;;;;;5022456;28;20098;-56
2022/11/18 09:25:31;;;;;;;39.55;17.25;;;3.20;99.90;;;;;;5042057;28;20041;-57
2022/11/18 09:27:57;;;;;;;42.28;16.40;;;5.20;99.90;;;;;;5042774;28;20049;-59
2022/11/18 09:30:22;;;;;;;36.85;15.38;;;5.20;99.90;;;;;;5043350;28;20052;-59
2022/11/18 09:32:49;;;;;;;41.22;16.67;;;5.10;99.90;;;;;;5043740;28;20053;-59
2022/11/18 09:35:15;;;;;;;42.95;17.58;;;5.30;99.90;;;;;;5042241;28;20049;-61
2022/11/18 09:37:40;;;;;;;43.42;16.30;;;5.10;99.90;;;;;;5058748;28;20114;-58
2022/11/18 09:40:14;;;;;;;43.00;16.60;;;5.00;99.90;;;;;;5043673;28;20052;-57
2022/11/18 09:43:10;;;;;;;43.88;17.92;;;5.10;99.90;;;;;;5025641;28;20085;-59
2022/11/18 09:45:47;;;;;;;50.05;18.40;;;5.10;99.90;;;;;;5042204;28;20053;-59
2022/11/18 09:48:19;;;;;;;49.78;18.10;;;5.10;99.90;;;;;;5042577;28;20123;-58
2022/11/18 09:50:45;;;;;;;51.13;17.38;;;5.00;99.90;;;;;;5041209;28;20398;-58
2022/11/18 09:53:22;;;;;;;51.60;20.05;;;5.10;99.90;;;;;;5041163;28;20055;-58
2022/11/18 09:55:49;;;;;;;47.28;19.15;;;5.40;99.90;;;;;;5043021;28;20045;-59
2022/11/18 09:58:33;;;;;;;50.40;18.42;;;5.30;99.90;;;;;;5041329;28;20498;-59
2022/11/18 10:00:59;;;;;;;47.58;18.38;;;5.10;99.90;;;;;;5058512;28;20057;-60
2022/11/18 10:03:30;;;;;;;45.55;18.45;;;5.20;99.90;;;;;;5041399;28;20123;-57
2022/11/18 10:06:03;;;;;;;49.05;18.58;;;5.20;99.90;;;;;;5017878;28;20084;-55
2022/11/18 10:08:38;;;;;;;48.85;17.88;;;5.10;99.90;;;;;;5042463;28;20033;-57
2022/11/18 10:11:16;;;;;;;43.80;18.63;;;5.10;99.90;;;;;;5042049;28;20079;-57
2022/11/18 10:14:08;;;;;;;50.35;18.55;;;5.00;99.90;;;;;;5044266;28;20044;-57
2022/11/18 10:16:40;;;;;;;49.30;19.08;;;5.10;99.90;;;;;;5041876;28;20048;-57
2022/11/18 10:19:32;;;;;;;46.38;19.15;;;6.10;99.90;;;;;;5042978;28;20116;-57
2022/11/18 10:22:10;;;;;;;50.90;19.48;;;5.10;99.90;;;;;;5041904;28;20498;-57
2022/11/18 10:24:40;;;;;;;53.47;17.58;;;5.10;99.90;;;;;;5042314;28;20037;-56
2022/11/18 10:27:12;;;;;;;57.78;20.42;;;5.00;99.90;;;;;;5043533;28;20639;-57
2022/11/18 10:29:38;;;;;;;53.47;20.08;;;5.00;99.90;;;;;;5042321;28;20056;-57
2022/11/18 10:32:06;;;;;;;58.45;20.45;;;5.00;99.90;;;;;;5058291;28;20629;-61
2022/11/18 10:34:33;;;;;;;53.35;20.35;;;5.00;99.90;;;;;;5040713;28;20049;-62
2022/11/18 10:37:00;;;;;;;47.30;17.83;;;4.90;99.90;;;;;;5042267;28;20045;-62
2022/11/18 10:39:26;;;;;;;55.03;19.23;;;5.30;99.90;;;;;;5041219;28;20048;-59
2022/11/18 10:41:54;;;;;;;50.67;18.55;;;5.00;99.90;;;;;;5041442;28;20209;-59
2022/11/18 10:44:31;;;;;;;46.65;17.70;;;4.80;99.90;;;;;;5057580;28;20060;-57
2022/11/18 10:47:24;;;;;;;59.28;19.48;;;5.90;99.90;;;;;;5042300;28;20059;-57
2022/11/18 10:49:56;;;;;;;51.42;19.58;;;5.00;99.90;;;;;;5053907;28;20072;-56
2022/11/18 10:52:22;;;;;;;54.78;19.55;;;5.60;99.90;;;;;;5041379;28;20136;-57
2022/11/18 10:55:08;;;;;;;55.60;19.42;;;4.80;99.90;;;;;;5042959;28;20055;-58
2022/11/18 10:57:43;;;;;;;56.03;19.98;;;4.90;99.90;;;;;;5042409;28;20045;-57
2022/11/18 11:00:31;;;;;;;62.72;20.05;;;5.60;99.90;;;;;;5042296;28;20099;-58
2022/11/18 11:02:57;;;;;;;65.20;20.52;;;4.80;99.90;;;;;;5041928;28;20057;-57
2022/11/18 11:05:24;;;;;;;70.03;24.77;;;6.00;99.90;;;;;;5037793;28;20053;-57
2022/11/18 11:08:05;;;;;;;66.40;21.65;;;4.60;99.90;;;;;;5041535;28;20118;-57
2022/11/18 11:10:31;;;;;;;57.42;20.65;;;4.70;99.90;;;;;;5041579;28;20712;-57
2022/11/18 11:13:03;;;;;;;52.30;20.30;;;6.20;99.90;;;;;;5042178;28;20053;-56
2022/11/18 11:15:42;;;;;;;55.17;21.00;;;4.40;99.90;;;;;;5041827;28;20087;-59
2022/11/18 11:21:02;;;;;;;52.03;19.75;;;4.60;99.90;;;;;;5040271;28;20057;-59
2022/11/18 11:23:29;;;;;;;50.72;18.52;;;4.60;99.90;;;;;;5041495;28;20053;-59
2022/11/18 11:26:04;;;;;;;57.35;17.50;;;5.00;99.90;;;;;;5041844;28;20045;-59
2022/11/18 11:28:31;;;;;;;59.85;20.85;;;4.50;99.90;;;;;;5039669;28;20829;-59
2022/11/18 11:31:13;;;;;;;51.20;18.95;;;4.50;99.90;;;;;;5041263;28;20041;-59
2022/11/18 11:33:45;;;;;;;52.05;19.92;;;4.50;99.90;;;;;;5044584;28;20834;-59
2022/11/18 11:36:29;;;;;;;;;;;4.50;99.90;;;;;;5046032;28;20466;-59
2022/11/18 11:39:26;;;;;;;61.35;17.98;;;4.50;99.90;;;;;;5047022;28;19921;-57
2022/11/18 11:42:04;;;;;;;61.58;19.15;;;4.50;99.90;;;;;;5046532;28;20045;-57
2022/11/18 11:44:39;;;;;;;56.80;20.05;;;4.50;99.90;;;;;;5046258;28;20583;-57
2022/11/18 11:50:08;;;;;;;59.58;20.58;;;4.30;99.90;;;;;;5044974;28;20056;-57
2022/11/18 11:52:45;;;;;;;60.60;21.83;;;5.20;99.90;;;;;;5045489;28;20041;-57
2022/11/18 11:55:52;;;;;;;61.75;20.35;;;4.10;99.90;;;;;;5045764;28;20048;-58
2022/11/18 11:58:57;;;;;;;59.97;21.27;;;4.40;99.90;;;;;;5060571;28;20056;-57
2022/11/18 12:01:38;;;;;;;60.53;20.52;;;4.40;99.90;;;;;;5047225;28;20068;-57
2022/11/18 12:04:37;;;;;;;64.68;20.35;;;4.30;99.90;;;;;;5048136;28;20045;-57
2022/11/18 12:07:05;;;;;;;59.25;18.80;;;4.20;99.90;;;;;;5049189;28;20053;-57
2022/11/18 12:09:31;;;;;;;61.90;19.20;;;4.20;99.90;;;;;;5047992;28;20606;-57
2022/11/18 12:12:35;;;;;;;63.50;19.88;;;4.20;99.90;;;;;;5049337;28;20048;-57
2022/11/18 12:15:18;;;;;;;67.85;20.70;;;4.20;99.90;;;;;;5047123;28;20794;-57
2022/11/18 12:17:58;;;;;;;63.70;20.13;;;4.20;99.90;;;;;;5064604;28;20567;-57
2022/11/18 12:20:46;;;;;;;63.50;19.42;;;5.10;99.90;;;;;;5064691;28;20110;-57
2022/11/18 12:23:30;;;;;;;49.67;16.38;;;4.10;99.90;;;;;;5048531;28;20052;-57
2022/11/18 12:26:02;;;;;;;50.33;17.75;;;4.20;99.90;;;;;;5049611;28;20055;-57
2022/11/18 12:28:41;;;;;;;62.65;19.10;;;4.00;99.90;;;;;;5049033;28;20040;-57
2022/11/18 12:31:22;;;;;;;63.40;18.90;;;4.10;99.90;;;;;;5047940;28;20414;-57
2022/11/18 12:33:53;;;;;;;58.85;22.30;;;4.40;99.90;;;;;;5047269;28;20091;-57
2022/11/18 12:36:38;;;;;;;60.35;21.52;;;4.00;99.90;;;;;;5064129;28;20052;-57
2022/11/18 12:39:30;;;;;;;67.32;20.65;;;4.10;99.90;;;;;;5049137;28;20102;-57
2022/11/18 12:44:50;;;;;;;53.70;19.77;;;4.00;99.90;;;;;;5048551;28;20052;-57
2022/11/18 12:47:42;;;;;;;60.83;19.92;;;3.90;99.90;;;;;;5064311;28;20139;-57
2022/11/18 12:50:14;;;;;;;58.25;21.15;;;4.00;99.90;;;;;;5060779;28;20454;-58
2022/11/18 12:52:39;;;;;;;57.10;20.13;;;3.90;99.90;;;;;;5048690;28;20053;-57
2022/11/18 12:55:23;;;;;;;64.53;20.50;;;3.80;99.90;;;;;;5047386;28;20118;-57
2022/11/18 12:57:49;;;;;;;59.78;20.00;;;3.90;99.90;;;;;;5047452;28;20123;-58
2022/11/18 13:00:22;;;;;;;59.05;20.42;;;3.90;99.90;;;;;;5047788;28;20148;-58
2022/11/18 13:03:00;;;;;;;71.72;21.35;;;3.90;99.90;;;;;;5047325;28;20531;-58
2022/11/18 13:05:34;;;;;;;55.72;20.42;;;3.90;99.90;;;;;;5048855;28;20557;-58
2022/11/18 13:08:14;;;;;;;56.53;19.15;;;3.80;99.90;;;;;;5048688;28;20059;-57
2022/11/18 13:10:42;;;;;;;62.80;20.38;;;3.90;99.90;;;;;;5048915;28;20045;-58
2022/11/18 13:13:26;;;;;;;66.90;21.55;;;3.80;99.90;;;;;;5046433;28;20055;-58
2022/11/18 13:18:50;;;;;;;66.72;20.30;;;3.80;99.90;;;;;;5047071;28;20049;-57
2022/11/18 13:24:10;;;;;;;78.43;23.25;;;3.80;99.90;;;;;;5047421;28;20061;-57
2022/11/18 13:26:39;;;;;;;79.20;23.40;;;3.80;99.90;;;;;;5047215;28;20049;-58